Time;durP1;ratioP1;P1;durP2;ratioP2;P2;SDS_P1;SDS_P2;PMS_P1;PMS_P2;Temp;Humidity;BMP_temperature;BMP_pressure;BME280_temperature;BME280_humidity;BME280_pressure;Samples;Min_cycle;Max_cycle;Signal;HPM_P1;HPM_P2
2020/12/13 00:00:23;;;;;;;;;;;;;;;;;;4991964;28;19925;-66
2020/12/13 00:02:49;;;;;;;;;;;;;;;;;;4987816;28;20406;-65
2020/12/13 00:05:16;;;;;;;;;;;;;;;;;;4992307;28;19969;-65
2020/12/13 00:07:42;;;;;;;;;;;;;;;;;;4990860;28;19925;-65
2020/12/13 00:10:09;;;;;;;;;;;;;;;;;;4991630;28;19933;-65
2020/12/13 00:12:35;;;;;;;;;;;;;;;;;;4992011;28;19965;-66
2020/12/13 00:15:02;;;;;;;;;;;;;;;;;;4990615;28;19934;-65
2020/12/13 00:17:28;;;;;;;;;;;;;;;;;;4992671;28;20028;-65
2020/12/13 00:19:55;;;;;;;;;;;;;;;;;;4993708;28;19926;-66
2020/12/13 00:22:21;;;;;;;;;;;;;;;;;;4993918;28;20393;-65
2020/12/13 00:24:48;;;;;;;;;;;;;;;;;;4993263;28;19933;-66
2020/12/13 00:27:14;;;;;;;;;;;;;;;;;;4991422;28;19934;-66
2020/12/13 00:29:41;;;;;;;;;;;;;;;;;;4992181;28;20350;-64
2020/12/13 00:32:07;;;;;;;;;;;;;;;;;;4992987;28;19936;-65
2020/12/13 00:34:34;;;;;;;;;;;;;;;;;;4992062;28;19926;-65
2020/12/13 00:37:00;;;;;;;;;;;;;;;;;;4991729;28;19965;-67
2020/12/13 00:39:27;;;;;;;;;;;;;;;;;;4991530;28;19936;-65
2020/12/13 00:41:53;;;;;;;;;;;;;;;;;;4991358;28;20375;-65
2020/12/13 00:44:19;;;;;;;;;;;;;;;;;;4990710;28;19932;-65
2020/12/13 00:46:46;;;;;;;;;;;;;;;;;;4991278;28;19930;-65
2020/12/13 00:49:12;;;;;;;;;;;;;;;;;;4991124;28;20370;-65
2020/12/13 00:51:39;;;;;;;;;;;;;;;;;;4991387;28;20016;-66
2020/12/13 00:54:05;;;;;;;;;;;;;;;;;;4991590;28;19926;-64
2020/12/13 00:56:32;;;;;;;;;;;;;;;;;;4991633;28;19925;-65
2020/12/13 00:58:58;;;;;;;;;;;;;;;;;;4991308;28;19980;-64
2020/12/13 01:01:25;;;;;;;;;;;;;;;;;;4995136;28;20378;-65
2020/12/13 01:03:51;;;;;;;;;;;;;;;;;;4995897;28;20297;-64
2020/12/13 01:06:18;;;;;;;;;;;;;;;;;;4994750;28;20001;-65
2020/12/13 01:08:44;;;;;;;;;;;;;;;;;;4996011;28;19934;-67
2020/12/13 01:11:11;;;;;;;;;;;;;;;;;;4996115;28;20065;-65
2020/12/13 01:13:37;;;;;;;;;;;;;;;;;;4994319;28;19933;-65
2020/12/13 01:16:04;;;;;;;;;;;;;;;;;;4994907;28;19926;-65
2020/12/13 01:18:30;;;;;;;;;;;;;;;;;;4995097;28;20032;-65
2020/12/13 01:20:56;;;;;;;;;;;;;;;;;;5000604;28;19930;-65
2020/12/13 01:23:23;;;;;;;;;;;;;;;;;;4995559;28;19925;-65
2020/12/13 01:25:49;;;;;;;;;;;;;;;;;;4997536;28;19929;-65
2020/12/13 01:28:16;;;;;;;;;;;;;;;;;;4996053;28;20040;-65
2020/12/13 01:30:42;;;;;;;;;;;;;;;;;;4994360;28;20033;-65
2020/12/13 01:33:09;;;;;;;;;;;;;;;;;;4995597;28;19937;-65
2020/12/13 01:35:35;;;;;;;;;;;;;;;;;;4994442;28;20032;-69
2020/12/13 01:38:02;;;;;;;;;;;;;;;;;;4994858;28;19932;-65
2020/12/13 01:40:28;;;;;;;;;;;;;;;;;;4993775;28;20458;-67
2020/12/13 01:42:55;;;;;;;;;;;;;;;;;;4994345;28;20314;-65
2020/12/13 01:45:21;;;;;;;;;;;;;;;;;;4991521;28;19932;-67
2020/12/13 01:47:50;;;;;;;;;;;;;;;;;;4994462;28;19941;-65
2020/12/13 01:50:28;;;;;;;;;;;;;;;;;;4993712;28;19976;-65
2020/12/13 01:53:13;;;;;;;;;;;;;;;;;;4995492;28;20002;-65
2020/12/13 01:55:40;;;;;;;;;;;;;;;;;;4992705;28;20445;-70
2020/12/13 01:58:06;;;;;;;;;;;;;;;;;;4994046;28;19972;-65
2020/12/13 02:00:33;;;;;;;;;;;;;;;;;;4994446;28;20124;-67
2020/12/13 02:02:59;;;;;;;;;;;;;;;;;;4994951;28;20315;-65
2020/12/13 02:05:25;;;;;;;;;;;;;;;;;;4993826;28;20317;-65
2020/12/13 02:07:52;;;;;;;;;;;;;;;;;;4996797;28;20356;-66
2020/12/13 02:10:18;;;;;;;;;;;;;;;;;;4994396;28;19932;-65
2020/12/13 02:12:45;;;;;;;;;;;;;;;;;;4994748;28;20400;-65
2020/12/13 02:15:11;;;;;;;;;;;;;;;;;;4995327;28;19926;-65
2020/12/13 02:17:38;;;;;;;;;;;;;;;;;;4994644;28;20013;-65
2020/12/13 02:20:04;;;;;;;;;;;;;;;;;;4994558;28;20036;-64
2020/12/13 02:22:31;;;;;;;;;;;;;;;;;;4994082;28;19926;-65
2020/12/13 02:24:57;;;;;;;;;;;;;;;;;;4993260;28;20449;-65
2020/12/13 02:27:24;;;;;;;;;;;;;;;;;;4995010;28;20440;-65
2020/12/13 02:29:51;;;;;;;;;;;;;;;;;;4993265;28;19932;-65
2020/12/13 02:32:17;;;;;;;;;;;;;;;;;;4992721;28;19933;-65
2020/12/13 02:34:44;;;;;;;;;;;;;;;;;;4994885;28;19926;-65
2020/12/13 02:37:10;;;;;;;;;;;;;;;;;;4993007;28;20032;-65
2020/12/13 02:39:36;;;;;;;;;;;;;;;;;;4995092;28;19936;-65
2020/12/13 02:42:03;;;;;;;;;;;;;;;;;;4993769;28;19932;-65
2020/12/13 02:44:29;;;;;;;;;;;;;;;;;;4994479;28;19969;-65
2020/12/13 02:46:56;;;;;;;;;;;;;;;;;;4993572;28;19926;-65
2020/12/13 02:49:22;;;;;;;;;;;;;;;;;;4994872;28;19926;-65
2020/12/13 02:51:49;;;;;;;;;;;;;;;;;;4992582;28;19925;-65
2020/12/13 02:54:15;;;;;;;;;;;;;;;;;;4994525;28;20028;-65
2020/12/13 02:56:41;;;;;;;;;;;;;;;;;;4991589;28;19936;-66
2020/12/13 02:59:08;;;;;;;;;;;;;;;;;;4994350;28;20021;-68
2020/12/13 03:01:34;;;;;;;;;;;;;;;;;;4993789;28;19926;-68
2020/12/13 03:04:01;;;;;;;;;;;;;;;;;;4992200;28;19937;-65
2020/12/13 03:06:27;;;;;;;;;;;;;;;;;;4993010;28;19932;-66
2020/12/13 03:08:54;;;;;;;;;;;;;;;;;;4992978;28;19925;-66
2020/12/13 03:11:20;;;;;;;;;;;;;;;;;;4993097;28;19926;-66
2020/12/13 03:13:47;;;;;;;;;;;;;;;;;;4992107;28;19934;-66
2020/12/13 03:16:13;;;;;;;;;;;;;;;;;;4992974;28;20020;-66
2020/12/13 03:18:40;;;;;;;;;;;;;;;;;;4992508;28;20462;-66
2020/12/13 03:21:06;;;;;;;;;;;;;;;;;;4995320;28;20317;-66
2020/12/13 03:23:32;;;;;;;;;;;;;;;;;;4992387;28;20413;-65
2020/12/13 03:25:59;;;;;;;;;;;;;;;;;;4991029;28;20297;-66
2020/12/13 03:28:25;;;;;;;;;;;;;;;;;;4992849;28;19932;-66
2020/12/13 03:30:52;;;;;;;;;;;;;;;;;;4992035;28;19926;-66
2020/12/13 03:33:18;;;;;;;;;;;;;;;;;;4997776;28;19938;-65
2020/12/13 03:35:45;;;;;;;;;;;;;;;;;;4992002;28;19926;-66
2020/12/13 03:38:11;;;;;;;;;;;;;;;;;;4991842;28;19926;-66
2020/12/13 03:40:37;;;;;;;;;;;;;;;;;;4992292;28;19926;-66
2020/12/13 03:43:04;;;;;;;;;;;;;;;;;;4994305;28;19926;-66
2020/12/13 03:45:30;;;;;;;;;;;;;;;;;;4990832;28;19926;-66
2020/12/13 03:47:57;;;;;;;;;;;;;;;;;;4992167;28;19949;-66
2020/12/13 03:50:23;;;;;;;;;;;;;;;;;;4992003;28;19926;-66
2020/12/13 03:52:50;;;;;;;;;;;;;;;;;;4991623;28;19926;-65
2020/12/13 03:55:16;;;;;;;;;;;;;;;;;;4991693;28;19968;-65
2020/12/13 03:57:42;;;;;;;;;;;;;;;;;;5001404;28;19934;-67
2020/12/13 04:00:10;;;;;;;;;;;;;;;;;;5005159;28;20024;-66
2020/12/13 04:02:36;;;;;;;;;;;;;;;;;;4991398;28;19929;-66
2020/12/13 04:05:02;;;;;;;;;;;;;;;;;;4990773;28;20005;-66
2020/12/13 04:07:29;;;;;;;;;;;;;;;;;;4993239;28;19932;-66
2020/12/13 04:09:55;;;;;;;;;;;;;;;;;;4992107;28;19926;-66
2020/12/13 04:12:22;;;;;;;;;;;;;;;;;;4991638;28;19932;-66
2020/12/13 04:14:48;;;;;;;;;;;;;;;;;;4991653;28;19926;-66
2020/12/13 04:17:15;;;;;;;;;;;;;;;;;;4992393;28;19926;-66
2020/12/13 04:19:41;;;;;;;;;;;;;;;;;;4993055;28;19936;-66
2020/12/13 04:22:07;;;;;;;;;;;;;;;;;;4992156;28;19955;-66
2020/12/13 04:24:34;;;;;;;;;;;;;;;;;;4991302;28;20309;-66
2020/12/13 04:27:00;;;;;;;;;;;;;;;;;;4991149;28;20390;-66
2020/12/13 04:29:27;;;;;;;;;;;;;;;;;;4991642;28;19932;-66
2020/12/13 04:31:53;;;;;;;;;;;;;;;;;;4991398;28;19926;-66
2020/12/13 04:34:20;;;;;;;;;;;;;;;;;;4993608;28;19926;-66
2020/12/13 04:36:46;;;;;;;;;;;;;;;;;;4995702;28;19930;-66
2020/12/13 04:39:12;;;;;;;;;;;;;;;;;;4994970;28;19933;-66
2020/12/13 04:41:39;;;;;;;;;;;;;;;;;;4996026;28;19929;-66
2020/12/13 04:44:05;;;;;;;;;;;;;;;;;;4994799;28;19940;-67
2020/12/13 04:46:32;;;;;;;;;;;;;;;;;;4995404;28;19926;-66
2020/12/13 04:48:58;;;;;;;;;;;;;;;;;;4995657;28;19925;-66
2020/12/13 04:51:24;;;;;;;;;;;;;;;;;;4995225;28;19936;-68
2020/12/13 04:53:51;;;;;;;;;;;;;;;;;;5018487;23;19936;-62
2020/12/13 04:56:17;;;;;;;;;;;;;;;;;;5016318;28;19933;-62
2020/12/13 04:58:44;;;;;;;;;;;;;;;;;;5015733;28;20308;-63
2020/12/13 05:01:10;;;;;;;;;;;;;;;;;;5020629;28;19930;-63
2020/12/13 05:03:37;;;;;;;;;;;;;;;;;;5014032;28;19931;-63
2020/12/13 05:06:03;;;;;;;;;;;;;;;;;;5013215;28;19932;-63
2020/12/13 05:08:30;;;;;;;;;;;;;;;;;;5014284;28;19949;-63
2020/12/13 05:10:56;;;;;;;;;;;;;;;;;;5013185;28;20008;-64
2020/12/13 05:13:23;;;;;;;;;;;;;;;;;;5011180;28;19969;-63
2020/12/13 05:15:49;;;;;;;;;;;;;;;;;;5014037;28;19931;-63
2020/12/13 05:18:15;;;;;;;;;;;;;;;;;;5013323;28;19925;-63
2020/12/13 05:20:42;;;;;;;;;;;;;;;;;;5013581;28;20340;-62
2020/12/13 05:23:08;;;;;;;;;;;;;;;;;;5013873;28;20302;-63
2020/12/13 05:25:35;;;;;;;;;;;;;;;;;;5008488;28;20397;-64
2020/12/13 05:28:01;;;;;;;;;;;;;;;;;;5011560;28;19939;-62
2020/12/13 05:30:30;;;;;;;;;;;;;;;;;;5012317;28;20385;-63
2020/12/13 05:32:56;;;;;;;;;;;;;;;;;;5013689;28;19932;-63
2020/12/13 05:35:23;;;;;;;;;;;;;;;;;;5013146;28;19925;-63
2020/12/13 05:37:49;;;;;;;;;;;;;;;;;;5013528;28;19925;-63
2020/12/13 05:40:16;;;;;;;;;;;;;;;;;;5013109;28;19939;-63
2020/12/13 05:42:45;;;;;;;;;;;;;;;;;;5012984;28;20309;-63
2020/12/13 05:45:24;;;;;;;;;;;;;;;;;;5011577;28;19925;-62
2020/12/13 05:53:30;;;;;;;;;;;;;;;;;;5004993;28;19922;-64
2020/12/13 05:55:57;;;;;;;;;;;;;;;;;;5011441;28;19926;-63
2020/12/13 05:58:23;;;;;;;;;;;;;;;;;;5012413;28;20282;-63
2020/12/13 06:00:51;;;;;;;;;;;;;;;;;;5012645;28;20428;-63
2020/12/13 06:03:17;;;;;;;;;;;;;;;;;;5012751;28;19926;-63
2020/12/13 06:05:44;;;;;;;;;;;;;;;;;;5013155;28;19926;-63
2020/12/13 06:08:10;;;;;;;;;;;;;;;;;;5012516;28;20238;-63
2020/12/13 06:10:37;;;;;;;;;;;;;;;;;;5012331;28;20011;-63
2020/12/13 06:13:03;;;;;;;;;;;;;;;;;;5012116;28;19926;-63
2020/12/13 06:15:29;;;;;;;;;;;;;;;;;;5011613;28;20301;-63
2020/12/13 06:17:56;;;;;;;;;;;;;;;;;;5013282;28;19961;-63
2020/12/13 06:20:23;;;;;;;;;;;;;;;;;;5011944;28;19932;-62
2020/12/13 06:22:49;;;;;;;;;;;;;;;;;;5012345;28;19932;-62
2020/12/13 06:25:16;;;;;;;;;;;;;;;;;;5012908;28;19925;-63
2020/12/13 06:27:42;;;;;;;;;;;;;;;;;;5012364;28;19975;-64
2020/12/13 06:30:08;;;;;;;;;;;;;;;;;;5012715;28;20279;-63
2020/12/13 06:32:35;;;;;;;;;;;;;;;;;;5011921;28;19931;-64
2020/12/13 06:35:01;;;;;;;;;;;;;;;;;;5009455;28;19925;-64
2020/12/13 06:37:28;;;;;;;;;;;;;;;;;;5007352;28;19925;-64
2020/12/13 06:39:54;;;;;;;;;;;;;;;;;;5006619;28;19940;-63
2020/12/13 06:42:21;;;;;;;;;;;;;;;;;;5017995;28;19939;-64
2020/12/13 06:44:47;;;;;;;;;;;;;;;;;;5013936;28;19929;-64
2020/12/13 06:47:13;;;;;;;;;;;;;;;;;;5019962;28;20265;-64
2020/12/13 06:49:40;;;;;;;;;;;;;;;;;;5010251;28;19941;-63
2020/12/13 06:52:06;;;;;;;;;;;;;;;;;;5011611;28;19929;-64
2020/12/13 06:54:33;;;;;;;;;;;;;;;;;;5009067;28;20013;-63
2020/12/13 06:56:59;;;;;;;;;;;;;;;;;;5009610;28;19931;-63
2020/12/13 06:59:26;;;;;;;;;;;;;;;;;;5009734;28;19937;-64
2020/12/13 07:01:52;;;;;;;;;;;;;;;;;;5012659;28;19925;-64
2020/12/13 07:04:18;;;;;;;;;;;;;;;;;;5004148;28;19933;-63
2020/12/13 07:06:45;;;;;;;;;;;;;;;;;;5010183;28;19932;-64
2020/12/13 07:09:12;;;;;;;;;;;;;;;;;;5010121;28;20024;-63
2020/12/13 07:11:38;;;;;;;;;;;;;;;;;;5012531;28;19925;-63
2020/12/13 07:14:05;;;;;;;;;;;;;;;;;;5010099;28;19926;-63
2020/12/13 07:16:33;;;;;;;;;;;;;;;;;;5011254;28;19979;-64
2020/12/13 07:18:59;;;;;;;;;;;;;;;;;;5008419;28;20020;-64
2020/12/13 07:21:26;;;;;;;;;;;;;;;;;;5010356;28;19963;-65
2020/12/13 07:23:52;;;;;;;;;;;;;;;;;;5012278;28;19925;-64
2020/12/13 07:26:19;;;;;;;;;;;;;;;;;;5011264;28;19976;-64
2020/12/13 07:28:46;;;;;;;;;;;;;;;;;;5010706;28;19932;-64
2020/12/13 07:31:12;;;;;;;;;;;;;;;;;;5010987;28;19980;-65
2020/12/13 07:33:39;;;;;;;;;;;;;;;;;;5009701;28;19932;-64
2020/12/13 07:36:05;;;;;;;;;;;;;;;;;;5011176;28;19925;-65
2020/12/13 07:38:31;;;;;;;;;;;;;;;;;;5011044;28;19926;-64
2020/12/13 07:40:58;;;;;;;;;;;;;;;;;;5009726;28;19925;-64
2020/12/13 07:43:25;;;;;;;;;;;;;;;;;;5012088;28;20040;-66
2020/12/13 07:45:51;;;;;;;;;;;;;;;;;;5011052;28;20016;-65
2020/12/13 07:48:18;;;;;;;;;;;;;;;;;;5008960;28;19932;-65
2020/12/13 07:50:44;;;;;;;;;;;;;;;;;;5011691;28;19930;-65
2020/12/13 07:53:10;;;;;;;;;;;;;;;;;;5010904;28;19933;-62
2020/12/13 07:55:37;;;;;;;;;;;;;;;;;;5002239;28;19929;-65
2020/12/13 07:58:03;;;;;;;;;;;;;;;;;;5011734;28;19929;-64
2020/12/13 08:00:30;;;;;;;;;;;;;;;;;;5010656;28;19932;-64
2020/12/13 08:02:57;;;;;;;;;;;;;;;;;;5007104;28;19925;-64
2020/12/13 08:05:23;;;;;;;;;;;;;;;;;;5010565;28;19932;-64
2020/12/13 08:07:50;;;;;;;;;;;;;;;;;;5010513;28;20433;-66
2020/12/13 08:10:16;;;;;;;;;;;;;;;;;;5011090;28;20338;-64
2020/12/13 08:12:43;;;;;;;;;;;;;;;;;;5009360;28;19925;-62
2020/12/13 08:15:09;;;;;;;;;;;;;;;;;;5010530;28;19940;-64
2020/12/13 08:17:36;;;;;;;;;;;;;;;;;;5009966;28;19931;-65
2020/12/13 08:20:02;;;;;;;;;;;;;;;;;;5010691;28;19935;-65
2020/12/13 08:22:29;;;;;;;;;;;;;;;;;;5009837;28;19925;-65
2020/12/13 08:24:55;;;;;;;;;;;;;;;;;;5011257;28;20100;-64
2020/12/13 08:27:22;;;;;;;;;;;;;;;;;;5006673;28;20309;-64
2020/12/13 08:29:48;;;;;;;;;;;;;;;;;;5008517;28;19925;-66
2020/12/13 08:32:15;;;;;;;;;;;;;;;;;;5010181;28;19949;-64
2020/12/13 08:34:41;;;;;;;;;;;;;;;;;;5009204;28;19933;-64
2020/12/13 08:37:07;;;;;;;;;;;;;;;;;;5010362;28;20269;-65
2020/12/13 08:39:34;;;;;;;;;;;;;;;;;;5009841;28;19933;-64
2020/12/13 08:42:00;;;;;;;;;;;;;;;;;;5009619;28;20309;-64
2020/12/13 08:44:27;;;;;;;;;;;;;;;;;;5010993;28;19925;-65
2020/12/13 08:46:53;;;;;;;;;;;;;;;;;;5010059;28;20381;-63
2020/12/13 08:49:20;;;;;;;;;;;;;;;;;;5009827;28;20024;-62
2020/12/13 08:51:46;;;;;;;;;;;;;;;;;;5010352;28;20309;-67
2020/12/13 08:54:13;;;;;;;;;;;;;;;;;;5010584;28;19936;-64
2020/12/13 08:56:41;;;;;;;;;;;;;;;;;;5003742;28;19932;-64
2020/12/13 08:59:08;;;;;;;;;;;;;;;;;;5007486;28;19932;-64
2020/12/13 09:01:35;;;;;;;;;;;;;;;;;;5011383;28;20058;-65
2020/12/13 09:04:03;;;;;;;;;;;;;;;;;;5010250;28;19932;-64
2020/12/13 09:06:30;;;;;;;;;;;;;;;;;;5010797;28;19926;-64
2020/12/13 09:08:56;;;;;;;;;;;;;;;;;;5011512;28;20000;-65
2020/12/13 09:11:23;;;;;;;;;;;;;;;;;;5010493;28;20252;-65
2020/12/13 09:13:50;;;;;;;;;;;;;;;;;;5008856;28;19967;-64
2020/12/13 09:16:16;;;;;;;;;;;;;;;;;;5011157;28;19926;-65
2020/12/13 09:18:43;;;;;;;;;;;;;;;;;;5010128;28;19948;-64
2020/12/13 09:21:09;;;;;;;;;;;;;;;;;;5012562;28;19925;-63
2020/12/13 09:23:36;;;;;;;;;;;;;;;;;;5013782;28;19932;-65
2020/12/13 09:26:02;;;;;;;;;;;;;;;;;;5013033;28;19932;-64
2020/12/13 09:28:29;;;;;;;;;;;;;;;;;;5014024;28;19931;-64
2020/12/13 09:30:55;;;;;;;;;;;;;;;;;;5014517;28;19925;-64
2020/12/13 09:33:22;;;;;;;;;;;;;;;;;;5015061;28;20375;-65
2020/12/13 09:35:48;;;;;;;;;;;;;;;;;;5010550;28;20024;-64
2020/12/13 09:38:15;;;;;;;;;;;;;;;;;;5012338;28;19938;-63
2020/12/13 09:40:41;;;;;;;;;;;;;;;;;;5013137;28;19929;-65
2020/12/13 09:43:08;;;;;;;;;;;;;;;;;;5014511;28;20283;-63
2020/12/13 09:45:34;;;;;;;;;;;;;;;;;;5015593;28;19925;-68
2020/12/13 09:48:01;;;;;;;;;;;;;;;;;;5013725;28;19939;-65
2020/12/13 09:50:27;;;;;;;;;;;;;;;;;;5010498;28;19980;-64
2020/12/13 09:52:54;;;;;;;;;;;;;;;;;;5010997;28;19926;-64
2020/12/13 09:55:20;;;;;;;;;;;;;;;;;;5000731;28;19930;-64
2020/12/13 09:57:47;;;;;;;;;;;;;;;;;;5009553;28;19926;-63
2020/12/13 10:00:13;;;;;;;;;;;;;;;;;;5012286;28;20016;-64
2020/12/13 10:02:40;;;;;;;;;;;;;;;;;;5009609;28;20029;-64
2020/12/13 10:05:14;;;;;;;;;;;;;;;;;;5013583;28;19925;-65
2020/12/13 10:10:37;;;;;;;;;;;;;;;;;;4963154;28;19977;-65
2020/12/13 10:13:03;;;;;;;;;;;;;;;;;;4997504;28;20392;-69
2020/12/13 10:15:30;;;;;;;;;;;;;;;;;;5009431;28;19932;-63
2020/12/13 10:17:56;;;;;;;;;;;;;;;;;;5009614;28;20408;-64
2020/12/13 10:20:23;;;;;;;;;;;;;;;;;;5011441;28;20005;-64
2020/12/13 10:22:49;;;;;;;;;;;;;;;;;;5007961;28;20362;-65
2020/12/13 10:25:16;;;;;;;;;;;;;;;;;;5013144;28;19933;-64
2020/12/13 10:27:42;;;;;;;;;;;;;;;;;;5012602;28;19996;-64
2020/12/13 10:30:09;;;;;;;;;;;;;;;;;;5011682;28;19932;-65
2020/12/13 10:32:35;;;;;;;;;;;;;;;;;;5012831;28;19987;-64
2020/12/13 10:35:02;;;;;;;;;;;;;;;;;;5013453;28;20020;-65
2020/12/13 10:37:28;;;;;;;;;;;;;;;;;;5012523;28;19925;-66
2020/12/13 10:39:55;;;;;;;;;;;;;;;;;;5013778;28;20008;-64
2020/12/13 10:42:21;;;;;;;;;;;;;;;;;;5010469;28;20370;-64
2020/12/13 10:44:48;;;;;;;;;;;;;;;;;;5006544;28;19943;-65
2020/12/13 10:47:14;;;;;;;;;;;;;;;;;;5010613;28;19925;-64
2020/12/13 10:49:41;;;;;;;;;;;;;;;;;;5007341;28;19936;-63
2020/12/13 10:52:07;;;;;;;;;;;;;;;;;;5005570;28;20341;-62
2020/12/13 10:54:34;;;;;;;;;;;;;;;;;;5024448;23;20312;-66
2020/12/13 10:57:00;;;;;;;;;;;;;;;;;;5010515;28;19925;-66
2020/12/13 10:59:27;;;;;;;;;;;;;;;;;;5012581;28;20308;-66
2020/12/13 11:01:53;;;;;;;;;;;;;;;;;;5011761;28;19965;-66
2020/12/13 11:04:20;;;;;;;;;;;;;;;;;;5011977;28;20388;-67
2020/12/13 11:06:46;;;;;;;;;;;;;;;;;;5011400;28;20012;-67
2020/12/13 11:09:13;;;;;;;;;;;;;;;;;;5012385;28;20056;-65
2020/12/13 11:11:39;;;;;;;;;;;;;;;;;;5012547;28;20020;-67
2020/12/13 11:14:06;;;;;;;;;;;;;;;;;;5013225;28;19933;-67
2020/12/13 11:16:32;;;;;;;;;;;;;;;;;;5010987;28;20429;-66
2020/12/13 11:18:59;;;;;;;;;;;;;;;;;;5010310;28;20412;-68
2020/12/13 11:21:25;;;;;;;;;;;;;;;;;;5011566;28;19972;-65
2020/12/13 11:23:51;;;;;;;;;;;;;;;;;;5016314;28;19948;-68
2020/12/13 11:26:18;;;;;;;;;;;;;;;;;;5012680;28;19971;-69
2020/12/13 11:28:44;;;;;;;;;;;;;;;;;;5018760;28;19931;-67
2020/12/13 11:31:11;;;;;;;;;;;;;;;;;;5015037;28;20157;-68
2020/12/13 11:33:37;;;;;;;;;;;;;;;;;;5011670;28;19932;-64
2020/12/13 11:36:04;;;;;;;;;;;;;;;;;;5005785;28;20015;-66
2020/12/13 11:38:30;;;;;;;;;;;;;;;;;;5011552;28;19926;-67
2020/12/13 11:40:57;;;;;;;;;;;;;;;;;;5010973;28;19929;-67
2020/12/13 11:43:23;;;;;;;;;;;;;;;;;;5008469;28;20397;-66
2020/12/13 11:45:50;;;;;;;;;;;;;;;;;;5010863;28;19932;-66
2020/12/13 11:48:16;;;;;;;;;;;;;;;;;;5019430;28;19925;-68
2020/12/13 11:50:50;;;;;;;;;;;;;;;;;;5009439;28;19925;-67
2020/12/13 11:53:16;;;;;;;;;;;;;;;;;;5006597;28;19940;-67
2020/12/13 11:55:43;;;;;;;;;;;;;;;;;;5005724;28;20028;-66
2020/12/13 11:58:09;;;;;;;;;;;;;;;;;;5010313;28;20392;-66
2020/12/13 12:00:36;;;;;;;;;;;;;;;;;;5009626;28;19926;-67
2020/12/13 12:03:02;;;;;;;;;;;;;;;;;;5021066;28;20496;-65
2020/12/13 12:05:29;;;;;;;;;;;;;;;;;;5008503;28;20019;-66
2020/12/13 12:07:55;;;;;;;;;;;;;;;;;;5014232;28;19925;-67
2020/12/13 12:10:22;;;;;;;;;;;;;;;;;;5010689;28;20004;-67
2020/12/13 12:12:48;;;;;;;;;;;;;;;;;;5010834;28;19933;-65
2020/12/13 12:15:15;;;;;;;;;;;;;;;;;;5006313;28;19925;-66
2020/12/13 12:17:41;;;;;;;;;;;;;;;;;;5012745;28;19926;-67
2020/12/13 12:20:08;;;;;;;;;;;;;;;;;;5009697;28;19938;-67
2020/12/13 12:22:34;;;;;;;;;;;;;;;;;;5011131;28;19933;-66
2020/12/13 12:25:01;;;;;;;;;;;;;;;;;;5006277;28;20419;-66
2020/12/13 12:27:27;;;;;;;;;;;;;;;;;;5009658;28;20016;-66
2020/12/13 12:29:54;;;;;;;;;;;;;;;;;;5018409;28;19925;-66
2020/12/13 12:32:20;;;;;;;;;;;;;;;;;;5011665;28;19932;-66
2020/12/13 12:34:47;;;;;;;;;;;;;;;;;;5010791;28;19980;-67
2020/12/13 12:37:13;;;;;;;;;;;;;;;;;;5010105;28;20270;-66
2020/12/13 12:39:39;;;;;;;;;;;;;;;;;;5020957;28;19972;-69
2020/12/13 12:42:06;;;;;;;;;;;;;;;;;;5001391;28;20038;-66
2020/12/13 12:44:32;;;;;;;;;;;;;;;;;;5008755;28;19929;-65
2020/12/13 12:46:59;;;;;;;;;;;;;;;;;;5021852;28;19972;-70
2020/12/13 12:49:25;;;;;;;;;;;;;;;;;;5017323;28;19926;-67
2020/12/13 12:51:52;;;;;;;;;;;;;;;;;;5004586;28;20364;-65
2020/12/13 12:54:19;;;;;;;;;;;;;;;;;;5007931;28;19933;-67
2020/12/13 12:56:46;;;;;;;;;;;;;;;;;;5013876;28;20004;-67
2020/12/13 12:59:14;;;;;;;;;;;;;;;;;;5015809;28;19925;-66
2020/12/13 13:01:43;;;;;;;;;;;;;;;;;;5014476;28;19926;-67
2020/12/13 13:04:11;;;;;;;;;;;;;;;;;;5016024;28;20288;-67
2020/12/13 13:07:00;;;;;;;;;;;;;;;;;;5013598;28;19956;-67
2020/12/13 13:09:30;;;;;;;;;;;;;;;;;;5010903;28;19925;-66
2020/12/13 13:11:56;;;;;;;;;;;;;;;;;;5005081;28;19953;-66
2020/12/13 13:14:23;;;;;;;;;;;;;;;;;;5023223;28;19925;-66
2020/12/13 13:16:58;;;;;;;;;;;;;;;;;;5012807;28;20012;-67
2020/12/13 13:19:25;;;;;;;;;;;;;;;;;;5014203;28;20017;-69
2020/12/13 13:21:51;;;;;;;;;;;;;;;;;;5014339;28;19932;-67
2020/12/13 13:24:18;;;;;;;;;;;;;;;;;;5014495;28;20024;-73
2020/12/13 13:26:45;;;;;;;;;;;;;;;;;;5024609;28;19972;-67
2020/12/13 13:29:11;;;;;;;;;;;;;;;;;;5008837;28;20407;-66
2020/12/13 13:31:37;;;;;;;;;;;;;;;;;;5011058;28;19980;-64
2020/12/13 13:34:04;;;;;;;;;;;;;;;;;;5013038;28;20364;-67
2020/12/13 13:36:30;;;;;;;;;;;;;;;;;;5011672;28;20040;-68
2020/12/13 13:38:57;;;;;;;;;;;;;;;;;;5011991;28;20411;-66
2020/12/13 13:41:25;;;;;;;;;;;;;;;;;;5012141;28;20020;-66
2020/12/13 13:43:54;;;;;;;;;;;;;;;;;;5018530;28;20393;-66
2020/12/13 13:52:10;;;;;;;;;;;;;;;;;;5008818;28;19952;-67
2020/12/13 13:54:36;;;;;;;;;;;;;;;;;;5014214;28;20405;-67
2020/12/13 13:57:04;;;;;;;;;;;;;;;;;;5010322;28;19973;-67
2020/12/13 13:59:32;;;;;;;;;;;;;;;;;;5011896;28;19925;-67
2020/12/13 14:01:59;;;;;;;;;;;;;;;;;;5011192;28;20448;-67
2020/12/13 14:04:26;;;;;;;;;;;;;;;;;;5012039;28;20026;-67
2020/12/13 14:09:42;;;;;;;;;;;;;;;;;;5010980;28;20381;-67
2020/12/13 14:12:09;;;;;;;;;;;;;;;;;;5012517;28;19964;-67
2020/12/13 14:14:35;;;;;;;;;;;;;;;;;;5011298;28;19936;-66
2020/12/13 14:17:02;;;;;;;;;;;;;;;;;;5016187;28;20400;-66
2020/12/13 14:19:28;;;;;;;;;;;;;;;;;;5014452;28;19929;-66
2020/12/13 14:21:55;;;;;;;;;;;;;;;;;;5012735;28;20028;-67
2020/12/13 14:24:21;;;;;;;;;;;;;;;;;;5010987;28;19932;-66
2020/12/13 14:26:48;;;;;;;;;;;;;;;;;;5014927;28;20312;-66
2020/12/13 14:29:14;;;;;;;;;;;;;;;;;;5012628;28;20289;-66
2020/12/13 14:31:41;;;;;;;;;;;;;;;;;;5014935;28;19991;-66
2020/12/13 14:34:08;;;;;;;;;;;;;;;;;;5017468;28;20460;-68
2020/12/13 14:36:35;;;;;;;;;;;;;;;;;;5012456;28;19929;-67
2020/12/13 14:39:01;;;;;;;;;;;;;;;;;;5016423;28;20016;-65
2020/12/13 14:41:28;;;;;;;;;;;;;;;;;;5011468;28;19968;-66
2020/12/13 14:43:55;;;;;;;;;;;;;;;;;;5010366;28;19933;-65
2020/12/13 14:46:21;;;;;;;;;;;;;;;;;;5008183;28;20505;-65
2020/12/13 14:48:48;;;;;;;;;;;;;;;;;;5013538;28;19929;-65
2020/12/13 14:51:15;;;;;;;;;;;;;;;;;;5012972;28;19956;-66
2020/12/13 14:53:41;;;;;;;;;;;;;;;;;;5009391;28;19929;-64
2020/12/13 14:56:08;;;;;;;;;;;;;;;;;;5010771;28;19933;-66
2020/12/13 14:58:34;;;;;;;;;;;;;;;;;;5008439;28;20000;-66
2020/12/13 15:01:01;;;;;;;;;;;;;;;;;;5011431;28;20357;-66
2020/12/13 15:03:27;;;;;;;;;;;;;;;;;;5009442;28;20012;-67
2020/12/13 15:05:54;;;;;;;;;;;;;;;;;;5020345;28;19925;-65
2020/12/13 15:08:20;;;;;;;;;;;;;;;;;;5010424;28;19932;-63
2020/12/13 15:10:48;;;;;;;;;;;;;;;;;;5007581;28;19926;-66
2020/12/13 15:13:17;;;;;;;;;;;;;;;;;;5010686;28;20008;-66
2020/12/13 15:15:51;;;;;;;;;;;;;;;;;;5010190;28;20379;-67
2020/12/13 15:18:17;;;;;;;;;;;;;;;;;;5010499;28;19929;-67
2020/12/13 15:20:44;;;;;;;;;;;;;;;;;;5009567;28;19999;-68
2020/12/13 15:23:10;;;;;;;;;;;;;;;;;;5010179;28;19932;-67
2020/12/13 15:25:37;;;;;;;;;;;;;;;;;;5007820;28;20300;-67
2020/12/13 15:28:05;;;;;;;;;;;;;;;;;;5016805;28;19925;-68
2020/12/13 15:30:32;;;;;;;;;;;;;;;;;;5011124;28;19948;-67
2020/12/13 15:32:59;;;;;;;;;;;;;;;;;;5012598;28;20016;-69
2020/12/13 15:35:26;;;;;;;;;;;;;;;;;;5008440;28;19996;-67
2020/12/13 15:37:52;;;;;;;;;;;;;;;;;;5009367;28;20020;-69
2020/12/13 15:40:19;;;;;;;;;;;;;;;;;;5010313;28;19932;-68
2020/12/13 15:42:45;;;;;;;;;;;;;;;;;;5009332;28;20045;-66
2020/12/13 15:45:12;;;;;;;;;;;;;;;;;;5013327;28;19933;-66
2020/12/13 15:47:38;;;;;;;;;;;;;;;;;;5009841;28;20222;-65
2020/12/13 15:50:05;;;;;;;;;;;;;;;;;;5011072;28;19979;-66
2020/12/13 15:52:31;;;;;;;;;;;;;;;;;;5012812;28;19932;-66
2020/12/13 15:54:58;;;;;;;;;;;;;;;;;;5007758;28;19953;-67
2020/12/13 15:57:24;;;;;;;;;;;;;;;;;;5014949;28;20465;-67
2020/12/13 15:59:51;;;;;;;;;;;;;;;;;;5011174;28;20016;-67
2020/12/13 16:02:17;;;;;;;;;;;;;;;;;;5006677;28;20040;-66
2020/12/13 16:04:46;;;;;;;;;;;;;;;;;;4999291;28;19933;-66
2020/12/13 16:07:18;;;;;;;;;;;;;;;;;;5019656;28;20353;-67
2020/12/13 16:09:46;;;;;;;;;;;;;;;;;;5013107;28;20289;-67
2020/12/13 16:12:12;;;;;;;;;;;;;;;;;;5019675;28;20282;-66
2020/12/13 16:14:39;;;;;;;;;;;;;;;;;;5011363;28;19929;-67
2020/12/13 16:17:05;;;;;;;;;;;;;;;;;;5018748;28;19980;-67
2020/12/13 16:19:32;;;;;;;;;;;;;;;;;;5009718;28;20372;-67
2020/12/13 16:21:58;;;;;;;;;;;;;;;;;;5008369;28;19932;-67
2020/12/13 16:24:26;;;;;;;;;;;;;;;;;;5014786;28;20360;-66
2020/12/13 16:26:53;;;;;;;;;;;;;;;;;;5009572;28;19932;-66
2020/12/13 16:29:19;;;;;;;;;;;;;;;;;;5013244;28;20008;-66
2020/12/13 16:31:45;;;;;;;;;;;;;;;;;;5017780;28;19925;-66
2020/12/13 16:34:12;;;;;;;;;;;;;;;;;;5013472;28;20052;-68
2020/12/13 16:36:39;;;;;;;;;;;;;;;;;;5011787;28;20444;-66
2020/12/13 16:39:07;;;;;;;;;;;;;;;;;;5014586;28;20409;-65
2020/12/13 16:41:39;;;;;;;;;;;;;;;;;;5016953;28;20011;-66
2020/12/13 16:44:11;;;;;;;;;;;;;;;;;;5011281;28;19925;-66
2020/12/13 16:46:42;;;;;;;;;;;;;;;;;;5010118;28;19976;-67
2020/12/13 16:49:27;;;;;;;;;;;;;;;;;;5008109;28;20282;-67
2020/12/13 16:53:19;;;;;;;;;;;;;;;;;;5002222;28;19925;-65
2020/12/13 16:54:54;;;;;;;;;;;;;;;;;;5024279;23;19925;-65
2020/12/13 16:57:20;;;;;;;;;;;;;;;;;;5012169;28;19934;-64
2020/12/13 16:59:47;;;;;;;;;;;;;;;;;;5006190;28;19934;-64